Data for 08/16/2006

Time Sea-Level Adjusted Pressure Absolute Pressure Temperature Relative Humidity Dew Point   
(mb) (inHg) (mb) (inHg) (C) (F) (%) (C) (F)
00:05 1019 30.09 848 25.04 12.1 53.8 79 8.6 47.5
00:10 1019 30.09 848 25.04 12.1 53.7 79 8.6 47.4
00:15 1019 30.09 848 25.04 12 53.6 78 8.4 47
00:20 1019 30.09 848 25.04 12.4 54.2 76 8.3 46.9
00:25 1019 30.09 848 25.04 12.3 54.1 77 8.4 47.1
00:30 1019 30.09 848 25.04 12.5 54.6 74 8 46.4
00:35 1019 30.09 848 25.04 12.6 54.6 75 8.3 47
00:40 1019 30.09 848 25.04 12.4 54.3 76 8.4 47.1
00:45 1019 30.09 848 25.04 11.8 53.2 80 8.4 47.1
00:50 1019 30.09 848 25.04 11.4 52.6 80 8.1 46.6
00:55 1019 30.09 848 25.04 11.4 52.6 80 8.1 46.6
01:00 1019 30.09 848 25.04 11.5 52.8 78 7.9 46.1
01:05 1019 30.09 848 25.04 11.9 53.5 75 7.7 45.9
01:10 1019 30.09 848 25.04 12.4 54.2 74 7.8 46
01:15 1019 30.09 848 25.04 12.3 54.1 75 7.9 46.2
01:20 1019 30.09 848 25.04 12.1 53.8 75 7.8 46.1
01:25 1019 30.09 848 25.04 12.2 53.9 74 7.8 46
01:30 1019 30.09 848 25.04 11.9 53.3 78 8.1 46.6
01:35 1019 30.09 848 25.04 11.7 53 78 8 46.3
01:40 1019 30.09 848 25.04 11.6 52.9 78 7.9 46.2
01:45 1019 30.09 848 25.04 11.5 52.7 78 7.7 45.9
01:50 1019 30.09 848 25.04 11.4 52.4 78 7.8 46
01:55 1019 30.09 848 25.04 11.2 52.2 79 7.8 46
02:00 1019 30.09 848 25.04 11.1 51.9 79 7.6 45.7
02:05 1019 30.09 848 25.04 11 51.8 80 7.7 45.9
02:10 1019 30.09 848 25.04 10.9 51.6 80 7.6 45.6
02:15 1019 30.09 848 25.04 11.2 52.1 78 7.5 45.6
02:20 1019 30.09 848 25.04 11.3 52.3 78 7.6 45.7
02:25 1019 30.09 848 25.04 11.1 52 79 7.7 45.8
02:30 1018 30.06 848 25.04 10.8 51.4 81 7.7 45.9
02:35 1018 30.06 847 25.01 10.5 51 82 7.6 45.6
02:40 1018 30.06 847 25.01 10.4 50.6 81 7.3 45.1
02:45 1018 30.06 847 25.01 10.4 50.8 81 7.3 45.2
02:50 1018 30.06 847 25.01 10.2 50.4 82 7.3 45.1
02:55 1018 30.06 847 25.01 10.1 50.1 83 7.3 45.1
03:00 1018 30.06 847 25.01 10.3 50.6 82 7.3 45.2
03:05 1018 30.06 847 25.01 10.3 50.6 80 7.1 44.8
03:10 1018 30.06 847 25.01 10.2 50.4 80 7 44.5
03:15 1018 30.06 847 25.01 10.3 50.6 81 7.2 44.9
03:20 1018 30.06 847 25.01 10.2 50.3 82 7.2 44.9
03:25 1018 30.06 847 25.01 10.1 50.2 82 7.2 45
03:30 1018 30.06 847 25.01 10 50 83 7.3 45.1
03:35 1018 30.06 847 25.01 10.1 50.1 82 7.2 44.9
03:40 1018 30.06 847 25.01 10.4 50.8 81 7.3 45.1
03:45 1018 30.06 847 25.01 10.9 51.6 78 7.2 45
03:50 1018 30.06 847 25.01 11.2 52.1 78 7.4 45.4
03:55 1018 30.06 847 25.01 11.1 52 78 7.4 45.3
04:00 1018 30.06 847 25.01 11.1 51.9 78 7.4 45.3
04:05 1018 30.06 847 25.01 11.2 52.2 77 7.3 45.2
04:10 1018 30.06 847 25.01 11.2 52.1 77 7.4 45.3
04:15 1018 30.06 847 25.01 11.2 52.1 77 7.4 45.2
04:20 1018 30.06 847 25.01 11.2 52.1 77 7.4 45.3
04:25 1018 30.06 847 25.01 11 51.8 78 7.3 45.1
04:30 1018 30.06 847 25.01 10.9 51.6 78 7.2 45
04:35 1018 30.06 847 25.01 11 51.8 77 7.1 44.8
04:40 1018 30.06 847 25.01 11.4 52.5 75 7.1 44.9
04:45 1018 30.06 847 25.01 11.5 52.6 75 7.2 44.9
04:50 1018 30.06 847 25.01 11 51.8 75 6.8 44.2
04:55 1018 30.06 847 25.01 10.7 51.2 77 6.8 44.2
05:00 1018 30.06 847 25.01 10.6 51 76 6.5 43.7
05:05 1018 30.06 847 25.01 10.5 50.9 76 6.6 43.8
05:10 1018 30.06 847 25.01 10.4 50.8 76 6.5 43.7
05:15 1018 30.06 847 25.01 10.6 51 76 6.6 43.9
05:20 1018 30.06 848 25.04 10.8 51.5 73 6.3 43.3
05:25 1019 30.09 848 25.04 10.8 51.5 74 6.5 43.7
05:30 1019 30.09 848 25.04 10.4 50.7 76 6.4 43.4
05:35 1019 30.09 848 25.04 10.5 50.8 75 6.3 43.3
05:40 1019 30.09 849 25.07 10.6 51 74 6.2 43.1
05:45 1020 30.12 849 25.07 10.7 51.2 73 6.1 43.1
05:50 1020 30.12 849 25.07 10.5 50.9 75 6.4 43.5
05:55 1019 30.09 849 25.07 10.3 50.5 77 6.4 43.5
06:00 1019 30.09 848 25.04 10 49.9 79 6.6 43.9
06:05 1019 30.09 848 25.04 9.7 49.4 80 6.4 43.6
06:10 1019 30.09 848 25.04 9.7 49.5 80 6.5 43.8
06:15 1019 30.09 848 25.04 9.9 49.8 80 6.6 43.8
06:20 1019 30.09 848 25.04 9.9 49.8 80 6.6 43.9
06:25 1019 30.09 848 25.04 9.9 49.7 81 6.8 44.2
06:30 1019 30.09 848 25.04 9.9 49.7 81 6.7 44.1
06:35 1019 30.09 848 25.04 10 50.1 82 7.1 44.7
06:40 1019 30.09 848 25.04 10.4 50.8 80 7.1 44.7
06:45 1019 30.09 848 25.04 10.7 51.2 79 7.2 45
06:50 1019 30.09 848 25.04 10.8 51.4 80 7.4 45.3
06:55 1018 30.06 847 25.01 11 51.8 76 7 44.7
07:00 1018 30.06 847 25.01 11 51.8 79 7.5 45.5
07:05 1018 30.06 847 25.01 10.8 51.4 80 7.5 45.5
07:10 1018 30.06 848 25.04 10.9 51.5 78 7.2 45
07:15 1019 30.09 848 25.04 11.3 52.3 76 7.3 45.1
07:20 1019 30.09 848 25.04 11.4 52.5 78 7.6 45.8
07:25 1019 30.09 848 25.04 11.2 52.2 78 7.5 45.5
07:30 1019 30.09 848 25.04 11.5 52.6 74 7 44.6
07:35 1019 30.09 848 25.04 12 53.5 73 7.2 45
07:40 1019 30.09 848 25.04 12.1 53.8 73 7.4 45.4
07:45 1019 30.09 848 25.04 12.3 54.2 72 7.4 45.4
07:50 1019 30.09 848 25.04 12 53.7 75 7.8 46
07:55 1019 30.09 849 25.07 12.3 54.1 75 7.9 46.2
08:00 1019 30.09 849 25.07 12.7 54.9 73 8 46.5
08:05 1019 30.09 849 25.07 12.8 55 73 8.1 46.7
08:10 1019 30.09 849 25.07 12.8 55.1 73 8.2 46.8
08:15 1020 30.12 849 25.07 13.4 56 70 8.1 46.6
08:20 1020 30.12 849 25.07 14 57.1 67 8.1 46.5
08:25 1020 30.12 849 25.07 14.4 57.9 67 8.3 47
08:30 1019 30.09 849 25.07 14.3 57.8 68 8.5 47.4
08:35 1019 30.09 849 25.07 14 57.1 69 8.5 47.2
08:40 1019 30.09 849 25.07 14.1 57.3 68 8.2 46.8
08:45 1019 30.09 849 25.07 14 57.2 67 8 46.5
08:50 1019 30.09 849 25.07 14.3 57.7 65 7.7 45.9
08:55 1019 30.09 849 25.07 14.6 58.3 62 7.5 45.5
09:00 1019 30.09 849 25.07 14.6 58.3 65 8.1 46.6
09:05 1020 30.12 849 25.07 15 59 63 8 46.5
09:10 1020 30.12 849 25.07 15.3 59.6 62 8.1 46.6
09:15 1020 30.12 849 25.07 16 60.9 60 8.4 47.2
09:20 1019 30.09 849 25.07 16.6 61.8 59 8.7 47.7
09:25 1019 30.09 849 25.07 17.3 63.1 57 8.7 47.7
09:30 1019 30.09 849 25.07 17.4 63.3 56 8.5 47.3
09:35 1019 30.09 849 25.07 17.5 63.5 54 8.3 47
09:40 1019 30.09 849 25.07 17.8 64 52 7.9 46.3
09:45 1019 30.09 849 25.07 18.3 64.9 52 8.3 47
09:50 1019 30.09 849 25.07 18 64.5 54 8.8 47.8
09:55 1019 30.09 849 25.07 18.3 64.9 52 8.2 46.8
10:00 1019 30.09 849 25.07 18.7 65.6 52 8.7 47.6
10:05 1019 30.09 849 25.07 18.4 65 51 8.1 46.6
10:10 1019 30.09 848 25.04 18.6 65.5 51 8.5 47.2
10:15 1019 30.09 848 25.04 19 66.3 50 8.5 47.2
10:20 1019 30.09 848 25.04 18.8 65.8 52 9 48.2
10:25 1019 30.09 848 25.04 18.6 65.6 52 8.8 47.8
10:30 1019 30.09 848 25.04 19.1 66.4 48 8.1 46.6
10:35 1019 30.09 848 25.04 20.1 68.2 48 8.9 48.1
10:40 1019 30.09 848 25.04 19.7 67.4 51 9.2 48.6
10:45 1019 30.09 848 25.04 19.6 67.3 51 9.3 48.7
10:50 1019 30.09 848 25.04 19.3 66.7 53 9.7 49.4
10:55 1019 30.09 848 25.04 19.6 67.3 51 9.2 48.5
11:00 1019 30.09 848 25.04 20.3 68.6 50 9.7 49.5
11:05 1019 30.09 848 25.04 20.4 68.7 49 9.5 49
11:10 1019 30.09 848 25.04 20.6 69 49 9.5 49
11:15 1019 30.09 848 25.04 20.9 69.6 47 9.4 49
11:20 1019 30.09 848 25.04 21 69.9 50 10.4 50.7
11:25 1019 30.09 848 25.04 20.2 68.3 52 10 50
11:30 1019 30.09 848 25.04 20.3 68.5 50 9.5 49.2
11:35 1019 30.09 848 25.04 19.7 67.5 54 10.1 50.3
11:40 1019 30.09 848 25.04 19.9 67.8 50 9.2 48.5
11:45 1019 30.09 848 25.04 19.9 67.7 50 9.3 48.8
11:50 1019 30.09 848 25.04 20.3 68.6 48 9.2 48.6
11:55 1019 30.09 848 25.04 19.6 67.3 50 9.1 48.4
12:00 1019 30.09 848 25.04 20 67.9 48 8.8 47.9
12:05 1018 30.06 848 25.04 20.6 69.1 46 8.7 47.7
12:10 1018 30.06 848 25.04 19.8 67.7 50 9.2 48.5
12:15 1019 30.09 848 25.04 20.1 68.2 48 9 48.2
12:20 1019 30.09 848 25.04 21.2 70.2 48 9.9 49.9
12:25 1019 30.09 848 25.04 21.7 71 46 9.6 49.3
12:30 1019 30.09 848 25.04 22 71.6 47 10.4 50.7
12:35 1018 30.06 848 25.04 21.4 70.5 48 10.2 50.4
12:40 1018 30.06 848 25.04 21.3 70.3 50 10.5 50.9
12:45 1018 30.06 848 25.04 21.2 70.2 48 10 50
12:50 1018 30.06 848 25.04 21.7 71.1 48 10.3 50.5
12:55 1018 30.06 848 25.04 21.4 70.6 48 10 50.1
13:00 1018 30.06 847 25.01 21.1 70 46 9.1 48.4
13:05 1018 30.06 847 25.01 20.9 69.6 44 8.5 47.2
13:10 1018 30.06 847 25.01 21.9 71.3 41 8.3 46.9
13:15 1018 30.06 847 25.01 22.7 72.8 40 8.6 47.6
13:20 1018 30.06 847 25.01 23 73.4 40 9 48.2
13:25 1018 30.06 847 25.01 23 73.3 40 8.8 47.9
13:30 1018 30.06 847 25.01 22.8 73 40 8.7 47.7
13:35 1018 30.06 847 25.01 22.4 72.4 40 8.3 46.9
13:40 1018 30.06 847 25.01 22.4 72.3 40 8.3 47
13:45 1018 30.06 847 25.01 22 71.6 40 8.1 46.6
13:50 1018 30.06 847 25.01 22.5 72.5 39 8.1 46.6
13:55 1018 30.06 847 25.01 22.6 72.6 41 8.8 47.8
14:00 1018 30.06 847 25.01 23.2 73.8 38 8.3 47
14:05 1017 30.03 847 25.01 23.8 74.8 36 8.1 46.5
14:10 1018 30.06 847 25.01 24.1 75.4 35 7.7 45.9
14:15 1018 30.06 847 25.01 24.1 75.4 35 7.7 45.9
14:20 1017 30.03 847 25.01 23.8 74.8 35 7.6 45.7
14:25 1017 30.03 846 24.98 23.1 73.6 38 8 46.5
14:30 1017 30.03 846 24.98 23.8 74.8 37 8.5 47.4
14:35 1017 30.03 847 25.01 23.6 74.5 40 9.5 49
14:40 1017 30.03 846 24.98 23.6 74.5 35 7.6 45.6
14:45 1017 30.03 846 24.98 24.4 75.9 35 8.2 46.7
14:50 1017 30.03 846 24.98 24.5 76.1 35 8.4 47.2
14:55 1017 30.03 846 24.98 24.7 76.4 35 8.3 46.9
15:00 1017 30.03 846 24.98 24.6 76.3 34 8 46.5
15:05 1017 30.03 846 24.98 24.8 76.6 34 8 46.3
15:10 1017 30.03 846 24.98 25.4 77.6 31 7.1 44.7
15:15 1017 30.03 846 24.98 25.5 77.9 31 7.2 44.9
15:20 1017 30.03 846 24.98 24.2 75.6 33 7 44.6
15:25 1017 30.03 846 24.98 23.9 75.1 34 7.3 45.1
15:30 1017 30.03 846 24.98 23.6 74.5 33 6.4 43.6
15:35 1017 30.03 846 24.98 23.3 74 33 6.6 43.8
15:40 1017 30.03 846 24.98 23.6 74.5 34 7.1 44.8
15:45 1017 30.03 846 24.98 23.8 74.8 34 7.1 44.7
15:50 1017 30.03 846 24.98 23.2 73.8 36 7.6 45.7
15:55 1017 30.03 846 24.98 22.9 73.3 36 7.2 45
16:00 1017 30.03 846 24.98 23.1 73.6 36 7.3 45.1
16:05 1017 30.03 846 24.98 23.1 73.7 34 6.6 43.9
16:10 1017 30.03 846 24.98 22.9 73.3 35 6.7 44
16:15 1017 30.03 846 24.98 22.8 73.1 35 7 44.5
16:20 1017 30.03 846 24.98 22.4 72.4 36 6.8 44.3
16:25 1017 30.03 847 25.01 22.1 71.8 39 7.5 45.6
16:30 1018 30.06 847 25.01 21.8 71.3 43 8.9 48
16:35 1017 30.03 847 25.01 21.7 71 47 10.2 50.3
16:40 1017 30.03 846 24.98 21 69.8 53 11.2 52.1
16:45 1017 30.03 846 24.98 21.2 70.2 53 11.4 52.6
16:50 1017 30.03 846 24.98 21.4 70.6 51 11 51.9
16:55 1017 30.03 846 24.98 20.8 69.4 52 10.8 51.4
17:00 1017 30.03 846 24.98 20.6 69.1 49 9.5 49.2
17:05 1017 30.03 846 24.98 21.1 70 46 9.3 48.8
17:10 1017 30.03 846 24.98 21.3 70.3 46 9.3 48.7
17:15 1017 30.03 846 24.98 21.4 70.5 48 10 50
17:20 1017 30.03 846 24.98 21.5 70.8 45 9.4 48.9
17:25 1017 30.03 846 24.98 21.4 70.6 42 8.3 46.9
17:30 1017 30.03 846 24.98 21.6 70.9 45 9.2 48.6
17:35 1017 30.03 846 24.98 22.2 71.9 40 8.2 46.7
17:40 1017 30.03 846 24.98 22.5 72.5 38 7.6 45.8
17:45 1017 30.03 846 24.98 22.3 72.2 40 8.4 47.2
17:50 1017 30.03 846 24.98 22.7 72.8 40 8.7 47.6
17:55 1016 30 846 24.98 22 71.6 43 8.9 48
18:00 1016 30 846 24.98 21.5 70.7 43 8.7 47.6
18:05 1016 30 846 24.98 21.6 70.8 43 8.4 47.2
18:10 1016 30 846 24.98 21.6 70.9 43 8.7 47.7
18:15 1016 30 846 24.98 22.4 72.2 40 8.2 46.8
18:20 1016 30 846 24.98 22.7 72.8 41 9 48.3
18:25 1017 30.03 846 24.98 22.2 72 40 8.3 46.9
18:30 1017 30.03 846 24.98 22.2 71.9 40 8.2 46.8
18:35 1017 30.03 846 24.98 22.4 72.3 41 8.5 47.3
18:40 1017 30.03 846 24.98 22.5 72.4 36 6.7 44.1
18:45 1017 30.03 846 24.98 22.6 72.7 40 8.5 47.2
18:50 1017 30.03 846 24.98 22 71.5 43 8.9 48
18:55 1017 30.03 846 24.98 21.4 70.6 42 8.2 46.7
19:00 1017 30.03 846 24.98 21.1 70 44 8.5 47.2
19:05 1017 30.03 846 24.98 20.9 69.6 45 8.6 47.5
19:10 1017 30.03 846 24.98 20.8 69.4 46 8.8 47.8
19:15 1017 30.03 846 24.98 20.6 69.1 44 8.2 46.8
19:20 1017 30.03 846 24.98 20.5 68.8 45 8.3 47
19:25 1017 30.03 846 24.98 20.4 68.8 46 8.4 47.2
19:30 1017 30.03 846 24.98 20.4 68.7 46 8.5 47.3
19:35 1017 30.03 846 24.98 20.4 68.6 46 8.5 47.3
19:40 1017 30.03 846 24.98 20.3 68.5 47 8.9 47.9
19:45 1017 30.03 846 24.98 19.9 67.8 49 9.1 48.3
19:50 1017 30.03 846 24.98 19.7 67.5 48 8.6 47.6
19:55 1017 30.03 846 24.98 19.8 67.6 49 9.1 48.3
20:00 1017 30.03 846 24.98 19.8 67.6 49 8.9 47.9
20:05 1017 30.03 846 24.98 19.7 67.4 51 9.3 48.8
20:10 1017 30.03 846 24.98 19.6 67.2 51 9.2 48.5
20:15 1017 30.03 846 24.98 19.4 67 51 9.1 48.3
20:20 1017 30.03 846 24.98 19.2 66.6 53 9.5 49
20:25 1017 30.03 846 24.98 18.9 66 54 9.5 49.1
20:30 1017 30.03 846 24.98 18.8 65.8 55 9.7 49.5
20:35 1017 30.03 846 24.98 18.7 65.6 57 10 50.1
20:40 1017 30.03 847 25.01 18.3 64.9 58 10.1 50.1
20:45 1017 30.03 847 25.01 18.1 64.6 58 9.9 49.7
20:50 1017 30.03 847 25.01 17.8 64 59 9.8 49.7
20:55 1018 30.06 847 25.01 17.6 63.6 61 10.1 50.1
21:00 1018 30.06 847 25.01 17.3 63.1 62 10.1 50.2
21:05 1018 30.06 847 25.01 17 62.5 63 9.9 49.8
21:10 1018 30.06 847 25.01 16.9 62.4 61 9.4 49
21:15 1018 30.06 847 25.01 16.6 61.9 62 9.3 48.7
21:20 1018 30.06 847 25.01 16.6 61.9 62 9.5 49.1
21:25 1018 30.06 847 25.01 16.7 62 60 9.1 48.3
21:30 1018 30.06 847 25.01 16.8 62.2 61 9.4 48.9
21:35 1018 30.06 847 25.01 17 62.6 58 8.8 47.8
21:40 1018 30.06 847 25.01 17.1 62.9 55 8.1 46.7
21:45 1018 30.06 847 25.01 17.3 63.1 54 8.1 46.5
21:50 1018 30.06 848 25.04 17.2 63 56 8.5 47.2
21:55 1018 30.06 848 25.04 17.1 62.8 58 8.8 47.8
22:00 1018 30.06 847 25.01 17.1 62.8 56 8.3 46.9
22:05 1018 30.06 847 25.01 17 62.6 57 8.5 47.4
22:10 1018 30.06 848 25.04 16.9 62.3 55 8 46.4
22:15 1019 30.09 848 25.04 16.9 62.5 56 8.1 46.6
22:20 1019 30.09 848 25.04 17 62.7 55 7.9 46.2
22:25 1020 30.12 849 25.07 16.6 61.9 62 9.3 48.7
22:30 1019 30.09 848 25.04 16 60.7 62 8.7 47.6
22:35 1018 30.06 847 25.01 16.3 61.4 59 8.5 47.3
22:40 1018 30.06 847 25.01 16.4 61.6 57 8.1 46.6
22:45 1018 30.06 847 25.01 16.8 62.2 58 8.5 47.2
22:50 1018 30.06 847 25.01 16.7 62.1 59 8.7 47.6
22:55 1018 30.06 848 25.04 16.6 61.8 59 8.7 47.6
23:00 1019 30.09 848 25.04 16.4 61.6 60 8.8 47.9
23:05 1019 30.09 848 25.04 16.4 61.5 61 8.8 47.9
23:10 1018 30.06 848 25.04 16.5 61.7 60 8.8 47.9
23:15 1018 30.06 848 25.04 16.6 61.8 60 8.8 47.8
23:20 1018 30.06 847 25.01 16.4 61.5 61 8.8 47.9
23:25 1018 30.06 847 25.01 16.2 61.1 62 8.9 48
23:30 1018 30.06 847 25.01 16.1 60.9 61 8.6 47.4
23:35 1017 30.03 847 25.01 16.1 60.9 61 8.5 47.4
23:40 1018 30.06 847 25.01 16.2 61.1 60 8.5 47.4
23:45 1018 30.06 847 25.01 16.1 61 61 8.7 47.6
23:50 1018 30.06 847 25.01 16.1 60.9 61 8.6 47.6
23:55 1018 30.06 848 25.04 16 60.8 61 8.6 47.5
24:00 1019 30.09 848 25.04 15.9 60.6 62 8.7 47.7